Terminal Aerodrome Forecast
Issued by NWS

Home | Current Version | Previous Version | Text Only | Print | Product List | Glossary On
Versions: 1 2 3 4 5 6 7 8 9 10 11 12 13
000
FTUS45 KVEF 171700
TAFDAG
TAF
KDAG 171738Z 1718/1818 VRB03KT P6SM FEW006 SCT050 OVC070
     FM172000 VRB04KT P6SM SCT050 BKN080
     FM180200 26010KT P6SM SCT080=

USA.gov is the U.S. government's official web portal to all federal, state and local government web resources and services.